Crookston, MN

7:04 AM CDT on July 22, 2017 (GMT -0500)
Crookston Municipal-Kirkwood

Weather History for KCKN - May, 2013

Change the Weather History Date:

Saturday, May 25, 2013

  Actual Average Record
Temperature  
Mean Temperature 60 °F -  
Max Temperature 71 °F 65 °F 84 °F (2014)
Min Temperature 50 °F 43 °F 33 °F (2007)
Degree Days  
Heating Degree Days 4    
Growing Degree Days 10 (Base 50)    
Moisture  
Dew Point 50 °F    
Average Humidity 70    
Maximum Humidity 100    
Minimum Humidity 43    
Precipitation  
Precipitation 0.00 in - - ()
Sea Level Pressure  
Sea Level Pressure 30.14 in    
Wind  
Wind Speed 15 mph (SSE)    
Max Wind Speed 21 mph    
Max Gust Speed 31 mph    
Visibility 10 miles    
Events      
Averages and records for this station are not official NWS values.
T = Trace of Precipitation, MM = Missing Value Source: NWS Daily Summary

Daily Weather History Graph

Daily Weather History Graph

Search for Another Location

Airport or City:

Trip Planner

Search our weather history database for the weather conditions in past years. The results will help you decide how hot, cold, wet, or windy it might be!

Date:

Astronomy

May. 25, 2013 Rise Set
Actual Time 5:37 AM CDT 9:10 PM CDT
Civil Twilight 4:58 AM CDT 9:49 PM CDT
Nautical Twilight 4:07 AM CDT 10:41 PM CDT
Astronomical Twilight 2:57 AM CDT 11:51 PM CDT
Moon 9:58 PM CDT (5/25) 6:06 AM CDT (5/25)
Length of Visible Light 16h 50m
Length of Day
15h 33m
Full, 100% of the Moon is Illuminated
May 25
Full
May 31
Last Quarter
Jun 8
New
Jun 16
First Quarter
Jun 23
Full

Hourly Weather History & Observations

Time (CDT) Temp. Dew Point Humidity Pressure Visibility Wind Dir Wind Speed Gust Speed Precip Events Conditions
12:14 AM 50.0 °F 50.0 °F 100% 30.19 in 4.0 mi SE 13.8 mph - N/A   Light Drizzle
12:34 AM 50.0 °F 50.0 °F 100% 30.18 in 5.0 mi SE 15.0 mph - N/A   Overcast
12:55 AM 50.0 °F 50.0 °F 100% 30.17 in 10.0 mi ESE 15.0 mph 21.9 mph N/A   Overcast
1:14 AM 51.8 °F 50.0 °F 94% 30.16 in 10.0 mi SE 13.8 mph - N/A   Overcast
1:35 AM 51.8 °F 51.8 °F 100% 30.16 in 10.0 mi SE 12.7 mph 18.4 mph N/A   Overcast
1:54 AM 51.8 °F 51.8 °F 100% 30.16 in 10.0 mi SE 16.1 mph - N/A   Overcast
2:14 AM 51.8 °F 51.8 °F 100% 30.15 in 10.0 mi SE 15.0 mph - N/A   Overcast
2:35 AM 51.8 °F 51.8 °F 100% 30.14 in 10.0 mi SE 16.1 mph - N/A   Overcast
2:54 AM 51.8 °F 51.8 °F 100% 30.14 in 10.0 mi SE 18.4 mph 25.3 mph N/A   Overcast
3:14 AM 51.8 °F 51.8 °F 100% 30.12 in 10.0 mi SE 15.0 mph 21.9 mph N/A   Overcast
3:35 AM 51.8 °F 51.8 °F 100% 30.11 in 10.0 mi SE 17.3 mph 21.9 mph N/A   Overcast
3:54 AM 51.8 °F 51.8 °F 100% 30.11 in 10.0 mi SE 13.8 mph 18.4 mph N/A   Overcast
4:15 AM 53.6 °F 51.8 °F 94% 30.11 in 10.0 mi ESE 12.7 mph - N/A   Overcast
4:35 AM 53.6 °F 51.8 °F 94% 30.12 in 10.0 mi ESE 12.7 mph - N/A   Overcast
4:54 AM 53.6 °F 51.8 °F 94% 30.12 in 10.0 mi SE 13.8 mph - N/A   Overcast
5:15 AM 53.6 °F 50.0 °F 88% 30.13 in 10.0 mi SE 11.5 mph - N/A   Overcast
5:35 AM 53.6 °F 50.0 °F 88% 30.13 in 10.0 mi ESE 11.5 mph - N/A   Overcast
5:54 AM 53.6 °F 50.0 °F 88% 30.13 in 10.0 mi ESE 10.4 mph - N/A   Mostly Cloudy
6:15 AM 53.6 °F 51.8 °F 94% 30.15 in 10.0 mi ESE 8.1 mph - N/A   Mostly Cloudy
6:34 AM 53.6 °F 51.8 °F 94% 30.15 in 10.0 mi ESE 8.1 mph - N/A   Scattered Clouds
6:54 AM 55.4 °F 51.8 °F 88% 30.15 in 10.0 mi SE 9.2 mph - N/A   Scattered Clouds
7:15 AM 55.4 °F 51.8 °F 88% 30.14 in 10.0 mi SE 12.7 mph - N/A   Scattered Clouds
7:34 AM 55.4 °F 51.8 °F 88% 30.14 in 10.0 mi SE 12.7 mph - N/A   Clear
7:54 AM 57.2 °F 51.8 °F 82% 30.14 in 10.0 mi SE 15.0 mph - N/A   Mostly Cloudy
8:15 AM 57.2 °F 51.8 °F 82% 30.14 in 10.0 mi SE 13.8 mph 19.6 mph N/A   Mostly Cloudy
8:34 AM 59.0 °F 51.8 °F 77% 30.14 in 10.0 mi SE 15.0 mph - N/A   Clear
8:54 AM 60.8 °F 51.8 °F 72% 30.14 in 10.0 mi SE 17.3 mph - N/A   Clear
9:15 AM 60.8 °F 51.8 °F 72% 30.14 in 10.0 mi SSE 18.4 mph 23.0 mph N/A   Scattered Clouds
9:34 AM 60.8 °F 51.8 °F 72% 30.14 in 10.0 mi SSE 16.1 mph - N/A   Mostly Cloudy
9:55 AM 60.8 °F 51.8 °F 72% 30.15 in 10.0 mi SSE 16.1 mph 20.7 mph N/A   Overcast
10:15 AM 60.8 °F 51.8 °F 72% 30.15 in 10.0 mi SSE 15.0 mph - N/A   Overcast
10:34 AM 60.8 °F 51.8 °F 72% 30.15 in 10.0 mi SSE 15.0 mph - N/A   Mostly Cloudy
10:55 AM 60.8 °F 51.8 °F 72% 30.15 in 10.0 mi SSE 15.0 mph - N/A   Overcast
11:15 AM 62.6 °F 51.8 °F 68% 30.15 in 10.0 mi SSE 18.4 mph 23.0 mph N/A   Overcast
11:34 AM 62.6 °F 50.0 °F 63% 30.16 in 10.0 mi SSE 19.6 mph - N/A   Mostly Cloudy
11:55 AM 64.4 °F 51.8 °F 64% 30.15 in 10.0 mi South 16.1 mph - N/A   Mostly Cloudy
12:15 PM 64.4 °F 51.8 °F 64% 30.15 in 10.0 mi SSE 16.1 mph - N/A   Scattered Clouds
12:34 PM 66.2 °F 51.8 °F 60% 30.15 in 10.0 mi South 15.0 mph 20.7 mph N/A   Scattered Clouds
12:55 PM 66.2 °F 51.8 °F 60% 30.14 in 10.0 mi South 18.4 mph 24.2 mph N/A   Scattered Clouds
1:14 PM 66.2 °F 51.8 °F 60% 30.14 in 10.0 mi SSE 16.1 mph 24.2 mph N/A   Clear
1:34 PM 68.0 °F 51.8 °F 56% 30.14 in 10.0 mi SSE 17.3 mph - N/A   Scattered Clouds
1:55 PM 69.8 °F 51.8 °F 53% 30.13 in 10.0 mi SSE 16.1 mph 31.1 mph N/A   Clear
2:14 PM 69.8 °F 50.0 °F 49% 30.13 in 10.0 mi SSE 16.1 mph 26.5 mph N/A   Scattered Clouds
2:34 PM 69.8 °F 50.0 °F 49% 30.13 in 10.0 mi SSE 20.7 mph 26.5 mph N/A   Scattered Clouds
2:55 PM 69.8 °F 51.8 °F 53% 30.13 in 10.0 mi SSE 19.6 mph 27.6 mph N/A   Scattered Clouds
3:14 PM 71.6 °F 51.8 °F 50% 30.13 in 10.0 mi SSE 19.6 mph 26.5 mph N/A   Scattered Clouds
3:34 PM 69.8 °F 50.0 °F 49% 30.13 in 10.0 mi South 18.4 mph 27.6 mph N/A   Scattered Clouds
3:55 PM 71.6 °F 50.0 °F 46% 30.13 in 10.0 mi SSE 20.7 mph 27.6 mph N/A   Scattered Clouds
4:14 PM 71.6 °F 48.2 °F 43% 30.12 in 10.0 mi SSE 19.6 mph 25.3 mph N/A   Clear
4:34 PM 71.6 °F 50.0 °F 46% 30.12 in 10.0 mi SSE 18.4 mph 26.5 mph N/A   Scattered Clouds
4:55 PM 71.6 °F 50.0 °F 46% 30.12 in 10.0 mi South 15.0 mph 27.6 mph N/A   Clear
5:14 PM 71.6 °F 50.0 °F 46% 30.13 in 10.0 mi South 16.1 mph 27.6 mph N/A   Scattered Clouds
5:34 PM 71.6 °F 50.0 °F 46% 30.13 in 10.0 mi SSE 13.8 mph 25.3 mph N/A   Mostly Cloudy
5:55 PM 71.6 °F 48.2 °F 43% 30.12 in 10.0 mi South 17.3 mph 26.5 mph N/A   Scattered Clouds
6:14 PM 69.8 °F 48.2 °F 46% 30.12 in 10.0 mi SSE 13.8 mph 21.9 mph N/A   Scattered Clouds
6:34 PM 69.8 °F 48.2 °F 46% 30.13 in 10.0 mi SSE 17.3 mph - N/A   Scattered Clouds
6:55 PM 69.8 °F 48.2 °F 46% 30.13 in 10.0 mi SSE 16.1 mph - N/A   Overcast
6:59 PM 69.8 °F 48.2 °F 46% 30.13 in 10.0 mi SSE 15.0 mph - N/A   Overcast
7:35 PM 69.8 °F 48.2 °F 46% 30.12 in 10.0 mi SSE 15.0 mph 18.4 mph N/A   Clear
7:54 PM 68.0 °F 46.4 °F 46% 30.12 in 10.0 mi SSE 13.8 mph - N/A   Clear
8:14 PM 66.2 °F 46.4 °F 49% 30.13 in 10.0 mi SSE 10.4 mph - N/A   Clear
8:35 PM 66.2 °F 46.4 °F 49% 30.14 in 10.0 mi South 10.4 mph - N/A   Clear
8:54 PM 66.2 °F 48.2 °F 52% 30.13 in 10.0 mi South 10.4 mph - N/A   Clear
9:15 PM 64.4 °F 48.2 °F 56% 30.14 in 10.0 mi South 9.2 mph - N/A   Clear
9:35 PM 62.6 °F 48.2 °F 59% 30.14 in 10.0 mi South 10.4 mph - N/A   Clear
9:54 PM 60.8 °F 48.2 °F 63% 30.15 in 10.0 mi South 5.8 mph - N/A   Clear
10:15 PM 60.8 °F 48.2 °F 63% 30.16 in 10.0 mi South 10.4 mph - N/A   Clear
10:35 PM 62.6 °F 48.2 °F 59% 30.16 in 10.0 mi South 12.7 mph - N/A   Mostly Cloudy
10:54 PM 62.6 °F 48.2 °F 59% 30.16 in 10.0 mi South 16.1 mph - N/A   Overcast
11:15 PM 60.8 °F 48.2 °F 63% 30.17 in 10.0 mi South 11.5 mph - N/A   Scattered Clouds
11:35 PM 59.0 °F 48.2 °F 67% 30.17 in 10.0 mi South 10.4 mph - N/A   Clear
11:54 PM 57.2 °F 48.2 °F 72% 30.17 in 10.0 mi South 9.2 mph - N/A   Clear